createdAt,value
2024-02-23T00:01:23.249Z,6.30
2024-02-23T00:03:51.351Z,6.30
2024-02-23T00:06:19.592Z,6.30
2024-02-23T00:08:49.000Z,6.30
2024-02-23T00:11:17.122Z,6.20
2024-02-23T00:13:45.220Z,6.20
2024-02-23T00:16:13.456Z,6.20
2024-02-23T00:18:41.628Z,6.10
2024-02-23T00:21:09.843Z,6.00
2024-02-23T00:23:38.196Z,6.00
2024-02-23T00:26:07.667Z,6.20
2024-02-23T00:28:36.342Z,6.00
2024-02-23T00:31:04.595Z,5.90
2024-02-23T00:33:33.046Z,6.00
2024-02-23T00:36:01.163Z,5.90
2024-02-23T00:38:29.362Z,5.90
2024-02-23T00:40:57.532Z,5.80
2024-02-23T00:43:27.417Z,5.70
2024-02-23T00:45:55.677Z,5.70
2024-02-23T00:48:23.928Z,5.70
2024-02-23T00:50:52.100Z,5.50
2024-02-23T00:53:21.562Z,5.50
2024-02-23T00:55:49.791Z,5.40
2024-02-23T00:58:18.077Z,5.40
2024-02-23T01:00:47.622Z,5.40
2024-02-23T01:03:15.778Z,5.30
2024-02-23T01:05:44.592Z,5.40
2024-02-23T01:08:12.732Z,5.30
2024-02-23T01:10:40.857Z,5.30
2024-02-23T01:13:08.964Z,5.30
2024-02-23T01:15:37.064Z,5.20
2024-02-23T01:18:08.908Z,5.20
2024-02-23T01:20:37.156Z,5.20
2024-02-23T01:23:05.398Z,5.10
2024-02-23T01:25:35.930Z,5.50
2024-02-23T01:28:04.418Z,5.20
2024-02-23T01:30:32.539Z,5.40
2024-02-23T01:33:01.665Z,5.10
2024-02-23T01:35:31.545Z,5.10
2024-02-23T01:37:59.891Z,5.10
2024-02-23T01:40:27.992Z,5.10
2024-02-23T01:43:03.794Z,5.10
2024-02-23T01:45:32.137Z,5.00
2024-02-23T01:48:00.533Z,5.00
2024-02-23T01:50:31.828Z,5.00
2024-02-23T01:53:04.420Z,4.80
2024-02-23T01:55:36.419Z,4.80
2024-02-23T01:58:08.578Z,4.70
2024-02-23T02:00:38.230Z,4.70
2024-02-23T02:03:09.798Z,4.60
2024-02-23T02:05:41.686Z,4.60
2024-02-23T02:08:09.920Z,4.60
2024-02-23T02:10:37.985Z,4.50
2024-02-23T02:13:06.689Z,4.40
2024-02-23T02:15:34.967Z,4.40
2024-02-23T02:18:03.452Z,4.40
2024-02-23T02:20:35.104Z,4.30
2024-02-23T02:23:04.847Z,4.30
2024-02-23T02:25:32.922Z,4.30
2024-02-23T02:28:01.014Z,4.30
2024-02-23T02:30:29.353Z,4.20
2024-02-23T02:32:57.385Z,4.20
2024-02-23T02:35:26.944Z,4.10
2024-02-23T02:37:55.159Z,4.10
2024-02-23T02:40:24.611Z,4.10
2024-02-23T02:42:52.656Z,4.00
2024-02-23T02:45:21.065Z,4.00
2024-02-23T02:47:49.312Z,3.90
2024-02-23T02:50:18.154Z,3.90
2024-02-23T02:52:46.302Z,3.90
2024-02-23T02:55:14.376Z,3.80
2024-02-23T02:57:43.911Z,3.90
2024-02-23T03:00:13.198Z,3.80
2024-02-23T03:02:41.280Z,3.80
2024-02-23T03:05:10.158Z,3.80
2024-02-23T03:07:38.304Z,3.90
2024-02-23T03:10:07.572Z,3.90
2024-02-23T03:12:35.717Z,4.00
2024-02-23T03:15:06.426Z,4.00
2024-02-23T03:17:35.011Z,4.10
2024-02-23T03:20:06.497Z,4.00
2024-02-23T03:22:34.705Z,3.90
2024-02-23T03:25:08.976Z,3.90
2024-02-23T03:27:38.026Z,3.80
2024-02-23T03:30:10.191Z,3.80
2024-02-23T03:32:39.142Z,3.70
2024-02-23T03:35:09.518Z,3.70
2024-02-23T03:37:37.697Z,3.70
2024-02-23T03:40:06.976Z,3.70
2024-02-23T03:42:35.109Z,3.70
2024-02-23T03:45:03.321Z,3.70
2024-02-23T03:47:32.870Z,3.70
2024-02-23T03:50:01.341Z,3.70
2024-02-23T03:52:29.615Z,3.60
2024-02-23T03:54:57.704Z,3.60
2024-02-23T03:57:25.747Z,3.60
2024-02-23T03:59:54.490Z,3.60
2024-02-23T04:02:22.674Z,3.50
2024-02-23T04:04:52.163Z,3.50
2024-02-23T04:07:20.429Z,3.50
2024-02-23T04:09:53.202Z,3.50
2024-02-23T04:12:21.683Z,3.40
2024-02-23T04:14:50.061Z,3.40
2024-02-23T04:17:18.707Z,3.40
2024-02-23T04:19:46.881Z,3.40
2024-02-23T04:22:16.548Z,3.40
2024-02-23T04:24:44.722Z,3.60
2024-02-23T04:27:13.127Z,3.50
2024-02-23T04:29:41.173Z,3.40
2024-02-23T04:32:09.262Z,3.40
2024-02-23T04:34:37.379Z,3.40
2024-02-23T04:37:05.447Z,3.40
2024-02-23T04:39:35.044Z,3.30
2024-02-23T04:42:03.685Z,3.80
2024-02-23T04:44:31.775Z,3.20
2024-02-23T04:47:01.465Z,3.20
2024-02-23T04:49:29.746Z,3.20
2024-02-23T04:51:58.457Z,3.20
2024-02-23T04:54:26.612Z,3.20
2024-02-23T04:56:57.013Z,3.20
2024-02-23T04:59:25.457Z,3.20
2024-02-23T05:01:53.741Z,3.20
2024-02-23T05:04:22.172Z,3.20
2024-02-23T05:06:50.418Z,3.30
2024-02-23T05:09:18.573Z,3.30
2024-02-23T05:11:48.495Z,3.30
2024-02-23T05:14:18.054Z,3.20
2024-02-23T05:16:46.215Z,3.20
2024-02-23T05:19:14.305Z,3.20
2024-02-23T05:21:42.383Z,3.20
2024-02-23T05:24:10.716Z,3.10
2024-02-23T05:26:39.013Z,3.10
2024-02-23T05:29:08.254Z,3.10
2024-02-23T05:31:48.630Z,3.00
2024-02-23T05:34:17.023Z,3.00
2024-02-23T05:36:46.796Z,3.00
2024-02-23T05:39:16.607Z,2.90
2024-02-23T05:41:44.861Z,2.90
2024-02-23T05:44:14.466Z,2.90
2024-02-23T05:46:44.704Z,2.90
2024-02-23T05:49:14.590Z,2.90
2024-02-23T05:51:43.130Z,2.90
2024-02-23T05:54:12.375Z,2.90
2024-02-23T05:56:40.470Z,2.90
2024-02-23T05:59:08.692Z,2.80
2024-02-23T06:01:37.804Z,2.80
2024-02-23T06:04:06.591Z,2.70
2024-02-23T06:06:36.508Z,2.70
2024-02-23T06:09:05.029Z,2.60
2024-02-23T06:11:33.390Z,2.60
2024-02-23T06:14:01.509Z,2.60
2024-02-23T06:16:29.935Z,2.60
2024-02-23T06:18:59.405Z,2.60
2024-02-23T06:21:27.845Z,2.50
2024-02-23T06:23:57.703Z,2.50
2024-02-23T06:26:25.760Z,2.50
2024-02-23T06:28:53.850Z,2.40
2024-02-23T06:31:22.055Z,2.40
2024-02-23T06:33:52.352Z,2.40
2024-02-23T06:36:20.756Z,2.40
2024-02-23T06:38:48.787Z,2.30
2024-02-23T06:41:18.326Z,2.30
2024-02-23T06:43:47.036Z,2.30
2024-02-23T06:46:15.091Z,2.30
2024-02-23T06:48:43.439Z,2.30
2024-02-23T06:51:11.723Z,2.30
2024-02-23T06:53:40.169Z,2.30
2024-02-23T06:56:08.720Z,2.40
2024-02-23T06:58:38.251Z,2.40
2024-02-23T07:01:07.897Z,2.40
2024-02-23T07:03:36.539Z,2.40
2024-02-23T07:06:05.351Z,2.50
2024-02-23T07:08:33.636Z,2.50
2024-02-23T07:11:01.881Z,2.50
2024-02-23T07:13:31.029Z,2.60
2024-02-23T07:16:02.100Z,2.70
2024-02-23T07:18:30.440Z,2.80
2024-02-23T07:20:59.073Z,2.90
2024-02-23T07:23:27.338Z,3.00
2024-02-23T07:25:56.174Z,3.10
2024-02-23T07:28:24.517Z,3.20
2024-02-23T07:30:53.873Z,3.20
2024-02-23T07:33:23.491Z,3.30
2024-02-23T07:35:51.987Z,3.40
2024-02-23T07:38:20.558Z,3.40
2024-02-23T07:40:49.087Z,3.40
2024-02-23T07:43:17.202Z,3.50
2024-02-23T07:45:45.502Z,3.50
2024-02-23T07:48:13.689Z,3.60
2024-02-23T07:50:43.239Z,3.60
2024-02-23T07:53:11.872Z,3.70
2024-02-23T07:55:39.974Z,3.80
2024-02-23T07:58:08.331Z,3.90
2024-02-23T08:00:39.096Z,3.90
2024-02-23T08:03:08.841Z,3.90
2024-02-23T08:05:36.963Z,4.00
2024-02-23T08:08:08.058Z,4.10
2024-02-23T08:10:36.254Z,4.10
2024-02-23T08:13:04.342Z,4.20
2024-02-23T08:15:32.389Z,4.40
2024-02-23T08:18:00.459Z,4.50
2024-02-23T08:20:28.588Z,4.60
2024-02-23T08:22:57.828Z,4.70
2024-02-23T08:25:29.664Z,4.70
2024-02-23T08:27:58.227Z,4.70
2024-02-23T08:30:26.404Z,4.80
2024-02-23T08:32:54.778Z,4.80
2024-02-23T08:35:23.097Z,4.90
2024-02-23T08:37:53.253Z,4.90
2024-02-23T08:40:21.385Z,5.00
2024-02-23T08:42:51.120Z,5.00
2024-02-23T08:45:19.890Z,5.10
2024-02-23T08:47:48.308Z,5.20
2024-02-23T08:50:16.685Z,5.30
2024-02-23T08:52:44.794Z,5.30
2024-02-23T08:55:13.651Z,5.40
2024-02-23T08:57:41.880Z,5.40
2024-02-23T09:00:16.259Z,5.50
2024-02-23T09:02:46.439Z,5.50
2024-02-23T09:05:14.875Z,5.50
2024-02-23T09:07:43.184Z,5.60
2024-02-23T09:10:13.005Z,5.60
2024-02-23T09:12:41.100Z,5.70
2024-02-23T09:15:11.492Z,5.80
2024-02-23T09:17:39.616Z,5.80
2024-02-23T09:20:09.068Z,5.70
2024-02-23T09:22:38.260Z,5.80
2024-02-23T09:25:07.399Z,5.80
2024-02-23T09:27:37.480Z,5.80
2024-02-23T09:30:07.252Z,5.80
2024-02-23T09:32:36.799Z,5.90
2024-02-23T09:35:05.791Z,6.00
2024-02-23T09:37:33.843Z,6.10
2024-02-23T09:40:02.126Z,6.20
2024-02-23T09:42:33.418Z,6.20
2024-02-23T09:45:02.764Z,6.30
2024-02-23T09:47:31.157Z,6.40
2024-02-23T09:50:05.192Z,6.40
2024-02-23T09:52:34.812Z,6.40
2024-02-23T09:55:04.962Z,6.40
2024-02-23T09:57:33.132Z,6.80
2024-02-23T10:00:01.524Z,6.40
2024-02-23T10:02:30.242Z,6.50
2024-02-23T10:05:02.241Z,6.40
2024-02-23T10:07:30.603Z,6.40
2024-02-23T10:09:58.770Z,6.50
2024-02-23T10:12:27.066Z,6.50
2024-02-23T10:14:55.205Z,6.40
2024-02-23T10:17:23.299Z,6.40
2024-02-23T10:19:51.366Z,6.50
2024-02-23T10:22:22.589Z,6.50
2024-02-23T10:24:50.702Z,6.50
2024-02-23T10:27:19.029Z,6.50
2024-02-23T10:29:51.129Z,6.50
2024-02-23T10:32:21.645Z,6.70
2024-02-23T10:34:51.960Z,6.90
2024-02-23T10:37:22.460Z,7.10
2024-02-23T10:39:58.828Z,7.10
2024-02-23T10:42:35.113Z,7.20
2024-02-23T10:45:05.193Z,7.20
2024-02-23T10:47:34.496Z,7.30
2024-02-23T10:50:03.785Z,7.30
2024-02-23T10:52:34.068Z,7.30
2024-02-23T10:55:05.369Z,7.20
2024-02-23T10:57:34.157Z,7.40
2024-02-23T11:00:02.611Z,7.50
2024-02-23T11:02:36.237Z,7.60
2024-02-23T11:05:06.275Z,7.60
2024-02-23T11:07:35.852Z,7.70
2024-02-23T11:10:07.074Z,7.70
2024-02-23T11:12:36.372Z,7.60
2024-02-23T11:15:05.127Z,7.70
2024-02-23T11:17:35.333Z,7.80
2024-02-23T11:20:05.871Z,7.80
2024-02-23T11:22:38.540Z,7.90
2024-02-23T11:25:09.930Z,7.90
2024-02-23T11:27:39.027Z,7.90
2024-02-23T11:30:09.261Z,7.90
2024-02-23T11:32:41.088Z,8.00
2024-02-23T11:35:10.742Z,8.00
2024-02-23T11:37:53.296Z,8.00
2024-02-23T11:40:22.202Z,8.00
2024-02-23T11:42:51.431Z,8.00
2024-02-23T11:45:20.024Z,8.00
2024-02-23T11:47:48.309Z,8.00
2024-02-23T11:50:17.949Z,8.00
2024-02-23T11:52:46.228Z,8.00
2024-02-23T11:55:22.595Z,8.00
2024-02-23T11:57:58.451Z,8.20
2024-02-23T12:00:33.289Z,8.40
2024-02-23T12:03:01.406Z,8.50
2024-02-23T12:05:29.980Z,8.60
2024-02-23T12:07:59.590Z,8.60
2024-02-23T12:10:29.991Z,8.60
2024-02-23T12:12:58.257Z,8.60
2024-02-23T12:15:27.329Z,8.70
2024-02-23T12:17:56.155Z,8.60
2024-02-23T12:20:24.302Z,8.60
2024-02-23T12:22:52.487Z,8.70
2024-02-23T12:25:20.585Z,9.00
2024-02-23T12:27:56.591Z,8.80
2024-02-23T12:30:24.820Z,8.80
2024-02-23T12:32:53.789Z,8.80
2024-02-23T12:35:21.947Z,8.90
2024-02-23T12:37:52.568Z,8.70
2024-02-23T12:40:20.649Z,8.60
2024-02-23T12:42:50.181Z,8.60
2024-02-23T12:45:18.237Z,8.60
2024-02-23T12:47:46.445Z,8.60
2024-02-23T12:50:15.541Z,8.60
2024-02-23T12:52:44.071Z,8.60
2024-02-23T12:55:12.217Z,8.70
2024-02-23T12:57:40.280Z,8.70
2024-02-23T13:00:11.057Z,8.60
2024-02-23T13:02:39.329Z,8.90
2024-02-23T13:05:07.906Z,9.30
2024-02-23T13:07:36.223Z,9.30
2024-02-23T13:10:04.406Z,9.90
2024-02-23T13:12:32.480Z,11.90
2024-02-23T13:15:00.559Z,13.60
2024-02-23T13:17:30.149Z,14.00
2024-02-23T13:20:05.837Z,13.10
2024-02-23T13:22:39.422Z,12.20
2024-02-23T13:25:08.353Z,12.10
2024-02-23T13:27:36.767Z,12.70
2024-02-23T13:30:05.293Z,12.40
2024-02-23T13:32:34.816Z,11.60
2024-02-23T13:35:05.342Z,11.00
2024-02-23T13:37:33.567Z,10.30
2024-02-23T13:40:01.632Z,10.00
2024-02-23T13:42:29.803Z,9.90
2024-02-23T13:45:00.393Z,9.80
2024-02-23T13:47:29.082Z,9.80
2024-02-23T13:49:59.404Z,9.80
2024-02-23T13:52:27.999Z,9.90
2024-02-23T13:54:56.900Z,10.00
2024-02-23T13:57:25.107Z,10.10
2024-02-23T13:59:53.505Z,10.10
2024-02-23T14:02:30.687Z,10.50
2024-02-23T14:05:05.216Z,10.20
2024-02-23T14:07:33.252Z,10.20
2024-02-23T14:10:02.373Z,11.70
2024-02-23T14:12:30.665Z,13.00
2024-02-23T14:14:58.736Z,12.90
2024-02-23T14:17:27.087Z,12.00
2024-02-23T14:19:55.326Z,11.40
2024-02-23T14:22:24.803Z,11.20
2024-02-23T14:24:52.952Z,12.10
2024-02-23T14:27:21.142Z,13.00
2024-02-23T14:29:50.274Z,12.80
2024-02-23T14:32:19.424Z,12.30
2024-02-23T14:34:47.681Z,11.70
2024-02-23T14:37:15.930Z,11.10
2024-02-23T14:39:47.468Z,10.70
2024-02-23T14:42:16.398Z,11.00
2024-02-23T14:44:44.943Z,12.70
2024-02-23T14:47:13.671Z,13.40
2024-02-23T14:49:41.961Z,14.10
2024-02-23T14:52:10.115Z,13.50
2024-02-23T14:54:38.196Z,13.00
2024-02-23T14:57:08.842Z,11.90
2024-02-23T14:59:37.296Z,11.50
2024-02-23T15:02:06.280Z,11.00
2024-02-23T15:04:34.474Z,10.80
2024-02-23T15:07:02.635Z,10.80
2024-02-23T15:09:31.012Z,10.90
2024-02-23T15:11:59.169Z,10.70
2024-02-23T15:14:28.713Z,10.70
2024-02-23T15:16:56.987Z,10.00
2024-02-23T15:19:27.052Z,9.80
2024-02-23T15:21:55.419Z,9.60
2024-02-23T15:24:25.270Z,9.40
2024-02-23T15:26:53.504Z,9.10
2024-02-23T15:29:21.945Z,9.00
2024-02-23T15:31:52.218Z,8.80
2024-02-23T15:34:21.173Z,8.70
2024-02-23T15:36:49.350Z,8.60
2024-02-23T15:39:17.468Z,8.60
2024-02-23T15:41:46.495Z,8.40
2024-02-23T15:44:15.020Z,8.30
2024-02-23T15:46:43.552Z,8.20
2024-02-23T15:49:26.922Z,8.10
2024-02-23T15:52:02.239Z,8.00
2024-02-23T15:54:31.206Z,7.90
2024-02-23T15:56:59.707Z,7.80
2024-02-23T15:59:28.127Z,7.70
2024-02-23T16:01:57.738Z,7.70
2024-02-23T16:04:28.283Z,8.10
2024-02-23T16:06:56.550Z,7.60
2024-02-23T16:09:24.698Z,7.60
2024-02-23T16:11:53.787Z,7.50
2024-02-23T16:14:21.980Z,7.40
2024-02-23T16:16:51.432Z,7.40
2024-02-23T16:19:20.017Z,7.30
2024-02-23T16:21:50.028Z,7.10
2024-02-23T16:24:18.586Z,7.10
2024-02-23T16:26:47.265Z,7.10
2024-02-23T16:29:15.523Z,6.90
2024-02-23T16:31:43.781Z,6.80
2024-02-23T16:34:12.058Z,6.80
2024-02-23T16:36:41.201Z,6.70
2024-02-23T16:39:12.285Z,6.60
2024-02-23T16:41:40.622Z,6.50
2024-02-23T16:44:11.188Z,6.40
2024-02-23T16:46:39.490Z,6.40
2024-02-23T16:49:08.166Z,6.20
2024-02-23T16:51:36.576Z,6.10
2024-02-23T16:54:05.589Z,6.00
2024-02-23T16:56:35.133Z,5.90
2024-02-23T16:59:03.795Z,5.70
2024-02-23T17:01:31.999Z,5.60
2024-02-23T17:04:00.184Z,5.50
2024-02-23T17:06:28.505Z,5.40
2024-02-23T17:08:56.651Z,5.30
2024-02-23T17:11:24.843Z,5.20
2024-02-23T17:13:56.170Z,5.10
2024-02-23T17:16:28.412Z,5.10
2024-02-23T17:18:57.020Z,4.90
2024-02-23T17:21:25.705Z,4.70
2024-02-23T17:23:53.767Z,4.50
2024-02-23T17:26:22.045Z,4.40
2024-02-23T17:28:51.968Z,4.30
2024-02-23T17:31:22.045Z,4.20
2024-02-23T17:33:50.228Z,4.10
2024-02-23T17:36:18.780Z,4.10
2024-02-23T17:38:46.845Z,4.00
2024-02-23T17:41:19.544Z,4.00
2024-02-23T17:43:49.561Z,3.90
2024-02-23T17:46:17.780Z,3.80
2024-02-23T17:48:47.540Z,3.70
2024-02-23T17:51:15.785Z,3.70
2024-02-23T17:53:44.051Z,3.60
2024-02-23T17:56:12.264Z,3.50
2024-02-23T17:58:40.344Z,3.40
2024-02-23T18:01:08.601Z,3.30
2024-02-23T18:03:37.106Z,3.20
2024-02-23T18:06:06.979Z,3.10
2024-02-23T18:08:37.425Z,3.00
2024-02-23T18:11:06.569Z,3.00
2024-02-23T18:13:35.005Z,2.90
2024-02-23T18:16:04.912Z,2.90
2024-02-23T18:18:33.249Z,2.80
2024-02-23T18:21:01.589Z,2.70
2024-02-23T18:23:31.238Z,2.60
2024-02-23T18:25:59.629Z,2.60
2024-02-23T18:28:27.764Z,2.60
2024-02-23T18:30:56.333Z,2.50
2024-02-23T18:33:24.580Z,2.40
2024-02-23T18:35:52.857Z,2.40
2024-02-23T18:38:21.095Z,2.30
2024-02-23T18:40:50.888Z,2.30
2024-02-23T18:43:18.966Z,2.30
2024-02-23T18:45:47.322Z,2.20
2024-02-23T18:48:15.405Z,2.20
2024-02-23T18:50:43.779Z,2.20
2024-02-23T18:53:12.994Z,2.30
2024-02-23T18:55:41.110Z,2.30
2024-02-23T18:58:10.512Z,2.30
2024-02-23T19:00:38.627Z,2.30
2024-02-23T19:03:06.744Z,2.30
2024-02-23T19:05:34.938Z,2.30
2024-02-23T19:08:03.258Z,2.30
2024-02-23T19:10:31.471Z,2.20
2024-02-23T19:12:59.693Z,2.20
2024-02-23T19:15:31.085Z,2.20
2024-02-23T19:17:59.230Z,2.20
2024-02-23T19:20:27.376Z,2.20
2024-02-23T19:23:00.835Z,2.30
2024-02-23T19:25:29.178Z,2.40
2024-02-23T19:27:57.248Z,2.50
2024-02-23T19:30:25.311Z,2.50
2024-02-23T19:32:55.020Z,2.60
2024-02-23T19:35:23.396Z,2.60
2024-02-23T19:37:51.504Z,2.60
2024-02-23T19:40:22.495Z,2.60
2024-02-23T19:42:52.086Z,2.60
2024-02-23T19:45:20.237Z,2.50
2024-02-23T19:47:48.414Z,2.90
2024-02-23T19:50:18.163Z,2.50
2024-02-23T19:52:46.825Z,2.50
2024-02-23T19:55:15.137Z,2.80
2024-02-23T19:57:43.423Z,2.50
2024-02-23T20:00:12.409Z,2.50
2024-02-23T20:02:40.818Z,2.60
2024-02-23T20:05:09.931Z,2.70
2024-02-23T20:07:39.501Z,2.90
2024-02-23T20:10:09.062Z,3.00
2024-02-23T20:12:37.384Z,3.20
2024-02-23T20:15:06.643Z,3.20
2024-02-23T20:17:37.851Z,3.20
2024-02-23T20:20:08.151Z,3.20
2024-02-23T20:22:36.561Z,3.20
2024-02-23T20:25:07.060Z,3.20
2024-02-23T20:27:35.284Z,3.20
2024-02-23T20:30:03.829Z,3.30
2024-02-23T20:32:32.306Z,3.30
2024-02-23T20:35:01.447Z,3.30
2024-02-23T20:37:30.430Z,3.30
2024-02-23T20:39:58.717Z,3.30
2024-02-23T20:42:28.487Z,3.30
2024-02-23T20:44:56.813Z,3.30
2024-02-23T20:47:25.624Z,3.30
2024-02-23T20:49:53.884Z,3.30
2024-02-23T20:52:22.237Z,3.20
2024-02-23T20:54:50.783Z,3.30
2024-02-23T20:57:19.836Z,3.20
2024-02-23T20:59:49.925Z,3.20
2024-02-23T21:02:22.460Z,3.20
2024-02-23T21:04:51.426Z,3.70
2024-02-23T21:07:19.949Z,3.20
2024-02-23T21:09:48.534Z,3.20
2024-02-23T21:12:16.852Z,3.30
2024-02-23T21:14:45.521Z,3.30
2024-02-23T21:17:15.360Z,3.40
2024-02-23T21:19:43.899Z,3.40
2024-02-23T21:22:12.179Z,3.40
2024-02-23T21:24:45.798Z,4.00
2024-02-23T21:27:14.541Z,3.50
2024-02-23T21:29:42.898Z,3.90
2024-02-23T21:32:11.330Z,4.20
2024-02-23T21:34:41.013Z,3.50
2024-02-23T21:37:10.226Z,3.60
2024-02-23T21:39:38.305Z,3.60
2024-02-23T21:42:07.062Z,3.60
2024-02-23T21:44:36.080Z,3.70
2024-02-23T21:47:05.215Z,3.70
2024-02-23T21:49:33.443Z,3.80
2024-02-23T21:52:06.516Z,3.80
2024-02-23T21:54:35.165Z,3.90
2024-02-23T21:57:03.643Z,3.70
2024-02-23T21:59:31.988Z,3.60
2024-02-23T22:02:05.932Z,3.60
2024-02-23T22:04:35.147Z,3.60
2024-02-23T22:07:05.262Z,3.50
2024-02-23T22:09:33.490Z,3.40
2024-02-23T22:12:02.732Z,3.40
2024-02-23T22:14:31.332Z,3.30
2024-02-23T22:16:59.419Z,3.20
2024-02-23T22:19:27.837Z,3.10
2024-02-23T22:21:56.049Z,3.00
2024-02-23T22:24:25.891Z,3.00
2024-02-23T22:26:55.950Z,2.90
2024-02-23T22:29:24.433Z,2.90
2024-02-23T22:31:52.706Z,2.80
2024-02-23T22:34:21.497Z,2.70
2024-02-23T22:36:50.423Z,2.70
2024-02-23T22:39:19.325Z,2.60
2024-02-23T22:41:49.015Z,2.60
2024-02-23T22:44:17.399Z,2.60
2024-02-23T22:46:46.897Z,2.70
2024-02-23T22:49:15.247Z,2.70
2024-02-23T22:51:45.572Z,2.80
2024-02-23T22:54:13.984Z,2.80
2024-02-23T22:56:42.880Z,2.80
2024-02-23T22:59:12.700Z,2.90
2024-02-23T23:01:41.077Z,2.90
2024-02-23T23:04:09.521Z,3.00
2024-02-23T23:06:39.234Z,3.00
2024-02-23T23:09:10.467Z,3.00
2024-02-23T23:11:39.219Z,3.70
2024-02-23T23:14:08.593Z,3.20
2024-02-23T23:16:38.399Z,3.30
2024-02-23T23:19:06.792Z,3.30
2024-02-23T23:21:35.072Z,3.80
2024-02-23T23:24:03.356Z,3.50
2024-02-23T23:26:31.476Z,3.50
2024-02-23T23:28:59.848Z,3.60
2024-02-23T23:31:28.906Z,3.70
2024-02-23T23:34:00.880Z,3.70
2024-02-23T23:36:29.103Z,3.80
2024-02-23T23:38:57.268Z,3.80
2024-02-23T23:41:25.477Z,4.20
2024-02-23T23:43:54.067Z,4.00
2024-02-23T23:46:22.251Z,4.00
2024-02-23T23:48:51.267Z,4.00
2024-02-23T23:51:21.072Z,4.10
2024-02-23T23:53:55.422Z,4.10
2024-02-23T23:56:24.550Z,4.10
2024-02-23T23:58:52.801Z,4.00
